Darstellungsparameter: Aktuell verwendete Einstellungen:
Skalierung der Graphiken ... ?
xyx+y,   Skalierungsfaktor:      Skalierung: Modus: x, Faktor: 1
Darstellungszeitraum ... ?
Vom - - bis: - -   Zeitraum: 03.11.2011 - 03.11.2011
Min/Max/Avg-Anzeige ... ?
Zeige MMA aktuell
Zeige MMA Monat
Zeige MMA alles
Zeige --A aktuell
Zeige --A Monat
Zeige --A alles
Keine MMA-Anzeige
MMA:
Keine MMA-Graphiken
MMA-Basis: 03.11.2011 - 03.11.2011
Quicknavigation für Darstellung... ?
Tage:      1T, 2T, 3T, 5T -1T -2T -3T -5T +1T +2T +3T +5T
Wochen: 1W, 2W, 3W -1W -2W -3W +1W +2W +3W
Monate: 1M, 3M, 6M -1M -3M -6M +1M +3M +6M
Jahre:    1J, 3J, 5J, 10J -1J -3J -5J -10J +1J +3J +5J +10J
Nutze für die Darstellung ... ?
Originaldaten oder Mittelwerte auf ...
Stundenbasis Tagesbasis Wochenbasis
Monatsbasis Jahresbasis      Datenbasis: Original-Daten
Darstellen als:
Statistik (Auto) Statistik J:M      Darstellung:
Zur Graphik,    zurück zur Übersicht aller Sensoren.
 
Tabellarische Datenbersicht: ?
 
Sensor: Nr:Datum:Temp:Abs-Feuchte:Windchill:Wind:
Aussen-T/F 1 03-11-2011 00:05:03 9.9 C 8.31 g/m*3 9.9 C 0 km/h
2 03-11-2011 00:17:03 9.9 C 8.31 g/m*3 9.9 C 0 km/h
3 03-11-2011 00:29:03 10 C 8.17 g/m*3 10 C 0 km/h
4 03-11-2011 00:41:03 10 C 8.17 g/m*3 10 C 0 km/h
5 03-11-2011 00:53:03 9.8 C 8.07 g/m*3 9.8 C 0 km/h
6 03-11-2011 01:05:03 9.8 C 8.07 g/m*3 9.8 C 0 km/h
7 03-11-2011 01:17:03 9.9 C 8.12 g/m*3 9.9 C 0 km/h
8 03-11-2011 01:29:03 9.8 C 7.98 g/m*3 9.8 C 0 km/h
9 03-11-2011 01:41:03 9.8 C 7.98 g/m*3 9.8 C 0 km/h
10 03-11-2011 01:53:03 9.7 C 7.93 g/m*3 9.7 C 0 km/h
11 03-11-2011 02:05:03 9.7 C 7.93 g/m*3 9.7 C 0 km/h
12 03-11-2011 02:17:03 9.8 C 7.98 g/m*3 9.8 C 0 km/h
13 03-11-2011 02:29:03 10 C 7.89 g/m*3 10 C 0 km/h
14 03-11-2011 02:41:03 10 C 7.89 g/m*3 10 C 0 km/h
15 03-11-2011 02:53:03 10 C 7.8 g/m*3 10 C 0 km/h
16 03-11-2011 03:05:03 10 C 7.8 g/m*3 10 C 0 km/h
17 03-11-2011 03:17:03 9.5 C 7.65 g/m*3 9.5 C 0 km/h
18 03-11-2011 03:29:03 9.4 C 7.51 g/m*3 9.4 C 0 km/h
19 03-11-2011 03:41:03 9.9 C 7.84 g/m*3 9.9 C 0 km/h
20 03-11-2011 03:53:04 9.5 C 7.55 g/m*3 9.5 C 0 km/h
21 03-11-2011 04:05:04 10.1 C 7.47 g/m*3 10.1 C 0 km/h
22 03-11-2011 04:17:04 10.4 C 7.42 g/m*3 10.4 C 0 km/h
23 03-11-2011 04:29:04 10.8 C 7.31 g/m*3 10.8 C 0 km/h
24 03-11-2011 04:41:04 10.7 C 7.37 g/m*3 10.7 C 0 km/h
25 03-11-2011 04:53:04 10.1 C 7.09 g/m*3 10.1 C 0 km/h
Sensor: Nr:Datum:Temp:Abs-Feuchte:Windchill:Wind:
Aussen-T/F 26 03-11-2011 05:05:04 9.9 C 7.38 g/m*3 9.9 C 0 km/h
27 03-11-2011 05:17:04 9.7 C 7.38 g/m*3 9.7 C 0 km/h
28 03-11-2011 05:29:04 9.8 C 7.52 g/m*3 9.8 C 0 km/h
29 03-11-2011 05:41:04 9.5 C 7.37 g/m*3 9.5 C 0 km/h
30 03-11-2011 05:53:04 9.5 C 7.46 g/m*3 9.5 C 0 km/h
31 03-11-2011 06:05:04 9.8 C 7.61 g/m*3 9.8 C 0 km/h
32 03-11-2011 06:17:04 10.3 C 7.57 g/m*3 10.3 C 0 km/h
33 03-11-2011 06:29:04 10.4 C 7.42 g/m*3 10.4 C 0 km/h
34 03-11-2011 06:41:05 10.5 C 7.37 g/m*3 10.5 C 0 km/h
35 03-11-2011 06:53:05 10.4 C 7.32 g/m*3 10.4 C 0 km/h
36 03-11-2011 07:05:05 10.5 C 7.37 g/m*3 10.5 C 0 km/h
37 03-11-2011 07:17:02 11.5 C 7.13 g/m*3 11.5 C 0 km/h
38 03-11-2011 07:29:02 11.3 C 7.04 g/m*3 11.3 C 0 km/h
39 03-11-2011 07:41:03 11.6 C 6.96 g/m*3 11.6 C 0 km/h
40 03-11-2011 07:53:02 11.5 C 6.92 g/m*3 11.5 C 0 km/h
41 03-11-2011 08:05:02 11.9 C 6.88 g/m*3 11.9 C 0 km/h
42 03-11-2011 08:17:02 11.8 C 6.84 g/m*3 11.8 C 0 km/h
43 03-11-2011 08:29:02 12 C 6.82 g/m*3 12 C 0 km/h
44 03-11-2011 08:41:01 12.1 C 6.76 g/m*3 12.1 C 0 km/h
45 03-11-2011 08:53:02 11.7 C 6.69 g/m*3 11.7 C 0 km/h
46 03-11-2011 09:05:01 12 C 6.82 g/m*3 12 C 0 km/h
47 03-11-2011 09:17:02 12.1 C 6.65 g/m*3 12.1 C 0 km/h
48 03-11-2011 09:29:02 12.7 C 6.68 g/m*3 12.7 C 0 km/h
49 03-11-2011 09:41:02 12.3 C 6.73 g/m*3 12.3 C 0 km/h
50 03-11-2011 09:53:02 12.6 C 6.75 g/m*3 12.6 C 0 km/h
Sensor: Nr:Datum:Temp:Abs-Feuchte:Windchill:Wind:
Aussen-T/F 51 03-11-2011 10:05:03 12.7 C 6.57 g/m*3 12.7 C 0 km/h
52 03-11-2011 10:17:02 13.1 C 6.85 g/m*3 13.1 C 0 km/h
53 03-11-2011 10:29:02 13.6 C 6.71 g/m*3 13.6 C 0 km/h
54 03-11-2011 10:41:02 13.9 C 6.71 g/m*3 13.9 C 0 km/h
55 03-11-2011 10:53:02 14 C 6.63 g/m*3 14 C 0 km/h
56 03-11-2011 11:05:02 14.2 C 6.59 g/m*3 14.2 C 0 km/h
57 03-11-2011 11:17:01 14 C 6.51 g/m*3 14 C 0 km/h
58 03-11-2011 11:29:01 14.2 C 6.84 g/m*3 14.2 C 0 km/h
59 03-11-2011 11:41:02 14.5 C 6.59 g/m*3 14.5 C 0 km/h
60 03-11-2011 11:53:02 14.1 C 6.55 g/m*3 14.1 C 0 km/h
61 03-11-2011 12:05:02 14.1 C 6.67 g/m*3 14.1 C 0 km/h
62 03-11-2011 12:17:02 14.2 C 7.08 g/m*3 14.2 C 0 km/h
63 03-11-2011 12:29:02 14.2 C 7.69 g/m*3 14.2 C 0 km/h
64 03-11-2011 12:41:02 14.5 C 7.84 g/m*3 14.5 C 0 km/h
65 03-11-2011 12:53:01 14.4 C 7.79 g/m*3 14.4 C 0 km/h
66 03-11-2011 13:05:02 14.6 C 7.88 g/m*3 14.6 C 0 km/h
67 03-11-2011 13:17:02 14.6 C 7.26 g/m*3 14.6 C 0 km/h
68 03-11-2011 13:29:02 13.9 C 6.83 g/m*3 13.9 C 0 km/h
69 03-11-2011 13:41:02 13.7 C 6.87 g/m*3 13.7 C 0 km/h
70 03-11-2011 13:53:02 14.1 C 6.8 g/m*3 14.1 C 0 km/h
71 03-11-2011 14:05:01 14.2 C 6.72 g/m*3 14.2 C 0 km/h
72 03-11-2011 14:17:02 14.3 C 6.63 g/m*3 14.3 C 0 km/h
73 03-11-2011 14:29:02 14.3 C 6.76 g/m*3 14.3 C 0 km/h
74 03-11-2011 14:41:02 14.1 C 6.55 g/m*3 14.1 C 0 km/h
75 03-11-2011 14:53:01 14 C 6.63 g/m*3 14 C 0 km/h
Sensor: Nr:Datum:Temp:Abs-Feuchte:Windchill:Wind:
Aussen-T/F 76 03-11-2011 15:05:02 13.7 C 6.75 g/m*3 13.7 C 0 km/h
77 03-11-2011 15:17:01 13.4 C 6.74 g/m*3 13.4 C 0 km/h
78 03-11-2011 15:29:01 13.2 C 6.54 g/m*3 13.2 C 0 km/h
79 03-11-2011 15:41:02 12.9 C 6.65 g/m*3 12.9 C 0 km/h
80 03-11-2011 15:53:02 12.2 C 6.8 g/m*3 12.2 C 0 km/h
81 03-11-2011 16:05:02 11.5 C 6.92 g/m*3 11.5 C 0 km/h
82 03-11-2011 16:17:01 11.1 C 7.25 g/m*3 11.1 C 0 km/h
83 03-11-2011 16:29:01 11.2 C 7.3 g/m*3 11.2 C 0 km/h
84 03-11-2011 16:41:02 11.6 C 7.17 g/m*3 11.6 C 0 km/h
85 03-11-2011 16:53:01 11.7 C 7.01 g/m*3 11.7 C 0 km/h
86 03-11-2011 17:05:02 11.8 C 6.95 g/m*3 11.8 C 0 km/h
87 03-11-2011 17:17:02 12 C 6.82 g/m*3 12 C 0 km/h
88 03-11-2011 17:29:02 12.1 C 6.65 g/m*3 12.1 C 0 km/h
89 03-11-2011 17:41:01 11.6 C 6.76 g/m*3 11.6 C 0 km/h
90 03-11-2011 17:53:02 11.5 C 6.82 g/m*3 11.5 C 0 km/h
91 03-11-2011 18:05:01 11.6 C 6.76 g/m*3 11.6 C 0 km/h
92 03-11-2011 18:17:02 11.5 C 6.71 g/m*3 11.5 C 0 km/h
93 03-11-2011 18:29:02 11.5 C 6.82 g/m*3 11.5 C 0 km/h
94 03-11-2011 18:41:01 11.5 C 6.92 g/m*3 11.5 C 0 km/h
95 03-11-2011 18:53:02 11.6 C 6.96 g/m*3 11.6 C 0 km/h
96 03-11-2011 19:05:02 10.8 C 7.31 g/m*3 10.8 C 0 km/h
97 03-11-2011 19:17:02 10.5 C 7.37 g/m*3 10.5 C 0 km/h
98 03-11-2011 19:29:02 10.7 C 7.27 g/m*3 10.7 C 0 km/h
99 03-11-2011 19:41:03 10.8 C 7.31 g/m*3 10.8 C 0 km/h
100 03-11-2011 19:53:02 10.2 C 7.52 g/m*3 10.2 C 0 km/h
Sensor: Nr:Datum:Temp:Abs-Feuchte:Windchill:Wind:
Aussen-T/F 101 03-11-2011 20:05:02 10 C 7.61 g/m*3 10 C 0 km/h
102 03-11-2011 20:17:01 10.2 C 7.8 g/m*3 10.2 C 0 km/h
103 03-11-2011 20:29:01 10.6 C 7.61 g/m*3 10.6 C 0 km/h
104 03-11-2011 20:41:02 10.5 C 7.47 g/m*3 10.5 C 0 km/h
105 03-11-2011 20:53:02 10.3 C 7.57 g/m*3 10.3 C 0 km/h
106 03-11-2011 21:05:02 10 C 7.52 g/m*3 10 C 0 km/h
107 03-11-2011 21:17:01 10 C 7.61 g/m*3 10 C 0 km/h
108 03-11-2011 21:29:01 9.8 C 7.7 g/m*3 9.8 C 0 km/h
109 03-11-2011 21:41:02 9.7 C 7.74 g/m*3 9.7 C 0 km/h
110 03-11-2011 21:53:01 9.5 C 7.65 g/m*3 9.5 C 0 km/h
111 03-11-2011 22:05:02 9.5 C 7.74 g/m*3 9.5 C 0 km/h
112 03-11-2011 22:18:03 9.3 C 7.73 g/m*3 9.3 C 0 km/h
113 03-11-2011 22:30:03 9.3 C 7.73 g/m*3 9.3 C 0 km/h
114 03-11-2011 22:42:03 9.4 C 7.87 g/m*3 9.4 C 0 km/h
115 03-11-2011 22:54:03 9.5 C 7.92 g/m*3 9.5 C 0 km/h
116 03-11-2011 23:06:03 9.3 C 7.82 g/m*3 9.3 C 0 km/h
117 03-11-2011 23:18:03 9.1 C 7.72 g/m*3 9.1 C 0 km/h
118 03-11-2011 23:30:03 9 C 7.67 g/m*3 9 C 0 km/h
119 03-11-2011 23:42:03 9 C 7.67 g/m*3 9 C 0 km/h
120 03-11-2011 23:54:03 9.1 C 7.72 g/m*3 9.1 C 0 km/h

Legende:
   Min
   Max


Maximal/Minimal-Werte vom 03.11.2011 - 03.11.2011

Sensor Min Max Avg
Temp
(Aussen-T/F)
9 °C
03-11-2011  23:30:03
14.6 °C
03-11-2011  13:05:02
11.36 °C
Abs-Feuchte
(Aussen-T/F)
6.51 g/m*3
03-11-2011  11:17:01
8.31 g/m*3
03-11-2011  00:05:03
7.22 g/m*3
Windchill
(Aussen-T/F)
9 C
03-11-2011  23:30:03
14.6 C
03-11-2011  13:05:02
11.26 C

Die Daten stammen von einer Davis Vantage Pro 2 Wetter-Station und werden unter Linux mit der Software wview2wettercgi und aufbereitet. Alle Angaben erfolgen ohne Gewähr für ihre Vollständigkeit oder Richtigkeit.
Kontakt: Rainer Krienke krienke@uni-koblenz.de . Meine Webseiten an der Uni Koblenz oder privat.
Version: $Revision: 0.78 $